sensor_id;sensor_type;location;lat;lon;timestamp;P1;durP1;ratioP1;P2;durP2;ratioP2
79790;SDS011;69278;52.220;5.172;2023-12-07T00:01:29;20.23;;;9.00;;
79790;SDS011;69278;52.220;5.172;2023-12-07T00:03:55;19.40;;;8.38;;
79790;SDS011;69278;52.220;5.172;2023-12-07T00:06:22;20.75;;;8.70;;
79790;SDS011;69278;52.220;5.172;2023-12-07T00:08:48;19.93;;;8.70;;
79790;SDS011;69278;52.220;5.172;2023-12-07T00:11:15;20.33;;;8.85;;
79790;SDS011;69278;52.220;5.172;2023-12-07T00:13:41;18.08;;;8.25;;
79790;SDS011;69278;52.220;5.172;2023-12-07T00:16:08;23.80;;;9.25;;
79790;SDS011;69278;52.220;5.172;2023-12-07T00:18:34;19.55;;;8.77;;
79790;SDS011;69278;52.220;5.172;2023-12-07T00:21:01;16.57;;;8.00;;
79790;SDS011;69278;52.220;5.172;2023-12-07T00:23:27;17.48;;;7.88;;
79790;SDS011;69278;52.220;5.172;2023-12-07T00:25:54;18.63;;;8.40;;
79790;SDS011;69278;52.220;5.172;2023-12-07T00:28:22;17.52;;;8.15;;
79790;SDS011;69278;52.220;5.172;2023-12-07T00:30:49;18.75;;;8.52;;
79790;SDS011;69278;52.220;5.172;2023-12-07T00:33:15;18.13;;;7.93;;
79790;SDS011;69278;52.220;5.172;2023-12-07T00:35:43;18.67;;;7.90;;
79790;SDS011;69278;52.220;5.172;2023-12-07T00:38:09;17.65;;;7.70;;
79790;SDS011;69278;52.220;5.172;2023-12-07T00:40:36;16.75;;;8.05;;
79790;SDS011;69278;52.220;5.172;2023-12-07T00:43:06;20.27;;;8.30;;
79790;SDS011;69278;52.220;5.172;2023-12-07T00:45:33;16.20;;;7.77;;
79790;SDS011;69278;52.220;5.172;2023-12-07T00:48:00;17.13;;;7.82;;
79790;SDS011;69278;52.220;5.172;2023-12-07T00:50:26;17.13;;;7.88;;
79790;SDS011;69278;52.220;5.172;2023-12-07T00:52:53;20.42;;;7.90;;
79790;SDS011;69278;52.220;5.172;2023-12-07T00:55:19;17.55;;;7.65;;
79790;SDS011;69278;52.220;5.172;2023-12-07T00:57:46;15.60;;;7.07;;
79790;SDS011;69278;52.220;5.172;2023-12-07T01:00:12;17.13;;;7.82;;
79790;SDS011;69278;52.220;5.172;2023-12-07T01:02:39;16.83;;;7.72;;
79790;SDS011;69278;52.220;5.172;2023-12-07T01:05:06;15.82;;;7.43;;
79790;SDS011;69278;52.220;5.172;2023-12-07T01:07:33;16.50;;;7.60;;
79790;SDS011;69278;52.220;5.172;2023-12-07T01:09:59;18.20;;;7.90;;
79790;SDS011;69278;52.220;5.172;2023-12-07T01:12:26;18.48;;;8.32;;
79790;SDS011;69278;52.220;5.172;2023-12-07T01:14:52;20.90;;;8.80;;
79790;SDS011;69278;52.220;5.172;2023-12-07T01:17:19;15.07;;;7.43;;
79790;SDS011;69278;52.220;5.172;2023-12-07T01:19:45;18.52;;;7.78;;
79790;SDS011;69278;52.220;5.172;2023-12-07T01:22:12;16.43;;;7.87;;
79790;SDS011;69278;52.220;5.172;2023-12-07T01:24:39;15.45;;;7.47;;
79790;SDS011;69278;52.220;5.172;2023-12-07T01:27:05;17.95;;;7.40;;
79790;SDS011;69278;52.220;5.172;2023-12-07T01:29:32;16.42;;;7.65;;
79790;SDS011;69278;52.220;5.172;2023-12-07T01:31:58;18.08;;;8.18;;
79790;SDS011;69278;52.220;5.172;2023-12-07T01:34:25;18.73;;;7.87;;
79790;SDS011;69278;52.220;5.172;2023-12-07T01:36:52;16.75;;;7.85;;
79790;SDS011;69278;52.220;5.172;2023-12-07T01:39:18;16.70;;;7.47;;
79790;SDS011;69278;52.220;5.172;2023-12-07T01:41:45;21.65;;;8.43;;
79790;SDS011;69278;52.220;5.172;2023-12-07T01:44:12;18.67;;;7.75;;
79790;SDS011;69278;52.220;5.172;2023-12-07T01:46:38;17.17;;;7.73;;
79790;SDS011;69278;52.220;5.172;2023-12-07T01:49:05;20.63;;;7.40;;
79790;SDS011;69278;52.220;5.172;2023-12-07T01:51:31;18.23;;;7.43;;
79790;SDS011;69278;52.220;5.172;2023-12-07T01:53:58;14.07;;;6.82;;
79790;SDS011;69278;52.220;5.172;2023-12-07T01:56:25;16.60;;;7.85;;
79790;SDS011;69278;52.220;5.172;2023-12-07T01:58:52;17.50;;;7.30;;
79790;SDS011;69278;52.220;5.172;2023-12-07T02:01:19;17.70;;;7.70;;
79790;SDS011;69278;52.220;5.172;2023-12-07T02:03:45;16.95;;;7.35;;
79790;SDS011;69278;52.220;5.172;2023-12-07T02:06:12;16.40;;;7.85;;
79790;SDS011;69278;52.220;5.172;2023-12-07T02:08:40;15.05;;;7.32;;
79790;SDS011;69278;52.220;5.172;2023-12-07T02:11:08;17.87;;;7.67;;
79790;SDS011;69278;52.220;5.172;2023-12-07T02:13:39;18.00;;;7.38;;
79790;SDS011;69278;52.220;5.172;2023-12-07T02:16:08;16.20;;;7.78;;
79790;SDS011;69278;52.220;5.172;2023-12-07T02:18:43;16.38;;;6.95;;
79790;SDS011;69278;52.220;5.172;2023-12-07T02:21:21;16.08;;;7.80;;
79790;SDS011;69278;52.220;5.172;2023-12-07T02:23:56;13.50;;;6.97;;
79790;SDS011;69278;52.220;5.172;2023-12-07T02:26:30;16.58;;;7.25;;
79790;SDS011;69278;52.220;5.172;2023-12-07T02:29:05;16.70;;;7.30;;
79790;SDS011;69278;52.220;5.172;2023-12-07T02:31:32;15.40;;;6.57;;
79790;SDS011;69278;52.220;5.172;2023-12-07T02:34:00;15.50;;;6.30;;
79790;SDS011;69278;52.220;5.172;2023-12-07T02:36:27;14.53;;;6.90;;
79790;SDS011;69278;52.220;5.172;2023-12-07T02:39:01;15.48;;;6.80;;
79790;SDS011;69278;52.220;5.172;2023-12-07T02:41:30;15.10;;;6.90;;
79790;SDS011;69278;52.220;5.172;2023-12-07T02:43:58;15.10;;;6.53;;
79790;SDS011;69278;52.220;5.172;2023-12-07T02:46:25;14.13;;;6.10;;
79790;SDS011;69278;52.220;5.172;2023-12-07T02:48:52;16.47;;;6.90;;
79790;SDS011;69278;52.220;5.172;2023-12-07T02:51:19;14.80;;;6.88;;
79790;SDS011;69278;52.220;5.172;2023-12-07T02:53:45;15.30;;;6.75;;
79790;SDS011;69278;52.220;5.172;2023-12-07T02:56:11;16.10;;;6.65;;
79790;SDS011;69278;52.220;5.172;2023-12-07T02:58:38;14.15;;;7.15;;
79790;SDS011;69278;52.220;5.172;2023-12-07T03:01:05;13.60;;;6.60;;
79790;SDS011;69278;52.220;5.172;2023-12-07T03:03:31;15.50;;;6.55;;
79790;SDS011;69278;52.220;5.172;2023-12-07T03:05:58;15.05;;;6.47;;
79790;SDS011;69278;52.220;5.172;2023-12-07T03:08:25;15.60;;;6.85;;
79790;SDS011;69278;52.220;5.172;2023-12-07T03:10:51;15.57;;;6.88;;
79790;SDS011;69278;52.220;5.172;2023-12-07T03:13:17;13.90;;;6.23;;
79790;SDS011;69278;52.220;5.172;2023-12-07T03:15:44;16.35;;;6.22;;
79790;SDS011;69278;52.220;5.172;2023-12-07T03:18:10;13.68;;;6.80;;
79790;SDS011;69278;52.220;5.172;2023-12-07T03:20:37;16.77;;;6.53;;
79790;SDS011;69278;52.220;5.172;2023-12-07T03:23:04;15.75;;;6.25;;
79790;SDS011;69278;52.220;5.172;2023-12-07T03:25:30;15.57;;;6.53;;
79790;SDS011;69278;52.220;5.172;2023-12-07T03:27:57;13.43;;;6.32;;
79790;SDS011;69278;52.220;5.172;2023-12-07T03:30:23;14.68;;;6.78;;
79790;SDS011;69278;52.220;5.172;2023-12-07T03:32:50;12.73;;;6.15;;
79790;SDS011;69278;52.220;5.172;2023-12-07T03:35:16;16.42;;;6.28;;
79790;SDS011;69278;52.220;5.172;2023-12-07T03:37:43;14.57;;;6.27;;
79790;SDS011;69278;52.220;5.172;2023-12-07T03:40:09;13.10;;;6.20;;
79790;SDS011;69278;52.220;5.172;2023-12-07T03:42:36;16.35;;;6.88;;
79790;SDS011;69278;52.220;5.172;2023-12-07T03:45:21;16.15;;;6.15;;
79790;SDS011;69278;52.220;5.172;2023-12-07T03:47:48;15.07;;;6.18;;
79790;SDS011;69278;52.220;5.172;2023-12-07T03:50:15;13.67;;;6.27;;
79790;SDS011;69278;52.220;5.172;2023-12-07T03:52:41;14.30;;;6.57;;
79790;SDS011;69278;52.220;5.172;2023-12-07T03:55:08;14.38;;;6.85;;
79790;SDS011;69278;52.220;5.172;2023-12-07T03:57:34;13.02;;;6.10;;
79790;SDS011;69278;52.220;5.172;2023-12-07T04:00:01;14.23;;;6.47;;
79790;SDS011;69278;52.220;5.172;2023-12-07T04:02:30;13.93;;;6.87;;
79790;SDS011;69278;52.220;5.172;2023-12-07T04:04:59;13.63;;;6.60;;
79790;SDS011;69278;52.220;5.172;2023-12-07T04:07:28;12.88;;;6.72;;
79790;SDS011;69278;52.220;5.172;2023-12-07T04:09:56;13.50;;;6.97;;
79790;SDS011;69278;52.220;5.172;2023-12-07T04:12:25;13.63;;;6.50;;
79790;SDS011;69278;52.220;5.172;2023-12-07T04:14:52;13.30;;;6.20;;
79790;SDS011;69278;52.220;5.172;2023-12-07T04:17:19;13.38;;;6.35;;
79790;SDS011;69278;52.220;5.172;2023-12-07T04:19:45;12.10;;;6.25;;
79790;SDS011;69278;52.220;5.172;2023-12-07T04:22:12;12.93;;;6.28;;
79790;SDS011;69278;52.220;5.172;2023-12-07T04:24:38;14.45;;;6.47;;
79790;SDS011;69278;52.220;5.172;2023-12-07T04:27:05;16.10;;;6.57;;
79790;SDS011;69278;52.220;5.172;2023-12-07T04:29:31;13.13;;;6.18;;
79790;SDS011;69278;52.220;5.172;2023-12-07T04:31:58;14.13;;;6.82;;
79790;SDS011;69278;52.220;5.172;2023-12-07T04:34:24;13.13;;;6.30;;
79790;SDS011;69278;52.220;5.172;2023-12-07T04:36:51;13.00;;;6.10;;
79790;SDS011;69278;52.220;5.172;2023-12-07T04:39:17;12.10;;;6.27;;
79790;SDS011;69278;52.220;5.172;2023-12-07T04:41:44;15.05;;;6.65;;
79790;SDS011;69278;52.220;5.172;2023-12-07T04:44:10;15.68;;;6.72;;
79790;SDS011;69278;52.220;5.172;2023-12-07T04:46:37;14.55;;;6.90;;
79790;SDS011;69278;52.220;5.172;2023-12-07T04:49:05;15.88;;;7.25;;
79790;SDS011;69278;52.220;5.172;2023-12-07T04:51:32;14.23;;;6.90;;
79790;SDS011;69278;52.220;5.172;2023-12-07T04:53:58;14.18;;;6.80;;
79790;SDS011;69278;52.220;5.172;2023-12-07T04:56:41;14.00;;;6.70;;
79790;SDS011;69278;52.220;5.172;2023-12-07T04:59:08;12.68;;;6.47;;
79790;SDS011;69278;52.220;5.172;2023-12-07T05:01:36;13.52;;;6.57;;
79790;SDS011;69278;52.220;5.172;2023-12-07T05:04:03;14.20;;;6.93;;
79790;SDS011;69278;52.220;5.172;2023-12-07T05:06:31;14.38;;;6.60;;
79790;SDS011;69278;52.220;5.172;2023-12-07T05:08:57;15.95;;;7.30;;
79790;SDS011;69278;52.220;5.172;2023-12-07T05:11:24;17.75;;;7.50;;
79790;SDS011;69278;52.220;5.172;2023-12-07T05:13:51;15.65;;;7.43;;
79790;SDS011;69278;52.220;5.172;2023-12-07T05:16:17;14.83;;;7.03;;
79790;SDS011;69278;52.220;5.172;2023-12-07T05:18:44;16.55;;;8.00;;
79790;SDS011;69278;52.220;5.172;2023-12-07T05:21:11;16.63;;;7.65;;
79790;SDS011;69278;52.220;5.172;2023-12-07T05:23:37;16.25;;;7.70;;
79790;SDS011;69278;52.220;5.172;2023-12-07T05:26:05;16.98;;;7.97;;
79790;SDS011;69278;52.220;5.172;2023-12-07T05:28:32;16.37;;;7.63;;
79790;SDS011;69278;52.220;5.172;2023-12-07T05:30:58;16.35;;;8.00;;
79790;SDS011;69278;52.220;5.172;2023-12-07T05:33:25;16.77;;;8.02;;
79790;SDS011;69278;52.220;5.172;2023-12-07T05:35:51;14.57;;;7.50;;
79790;SDS011;69278;52.220;5.172;2023-12-07T05:38:18;17.27;;;7.95;;
79790;SDS011;69278;52.220;5.172;2023-12-07T05:40:44;21.83;;;7.63;;
79790;SDS011;69278;52.220;5.172;2023-12-07T05:43:11;18.23;;;8.25;;
79790;SDS011;69278;52.220;5.172;2023-12-07T05:45:37;17.98;;;8.65;;
79790;SDS011;69278;52.220;5.172;2023-12-07T05:48:04;16.00;;;7.75;;
79790;SDS011;69278;52.220;5.172;2023-12-07T05:50:31;17.80;;;7.72;;
79790;SDS011;69278;52.220;5.172;2023-12-07T05:52:57;17.70;;;8.40;;
79790;SDS011;69278;52.220;5.172;2023-12-07T05:55:24;20.52;;;8.27;;
79790;SDS011;69278;52.220;5.172;2023-12-07T05:57:50;19.13;;;8.57;;
79790;SDS011;69278;52.220;5.172;2023-12-07T06:00:17;19.30;;;8.60;;
79790;SDS011;69278;52.220;5.172;2023-12-07T06:02:45;20.50;;;9.05;;
79790;SDS011;69278;52.220;5.172;2023-12-07T06:05:11;24.77;;;9.23;;
79790;SDS011;69278;52.220;5.172;2023-12-07T06:07:38;19.58;;;8.38;;
79790;SDS011;69278;52.220;5.172;2023-12-07T06:10:05;24.85;;;8.95;;
79790;SDS011;69278;52.220;5.172;2023-12-07T06:12:32;18.38;;;8.23;;
79790;SDS011;69278;52.220;5.172;2023-12-07T06:14:59;17.00;;;7.78;;
79790;SDS011;69278;52.220;5.172;2023-12-07T06:17:26;25.87;;;9.20;;
79790;SDS011;69278;52.220;5.172;2023-12-07T06:19:53;17.85;;;7.90;;
79790;SDS011;69278;52.220;5.172;2023-12-07T06:22:20;20.88;;;8.52;;
79790;SDS011;69278;52.220;5.172;2023-12-07T06:24:46;23.92;;;8.88;;
79790;SDS011;69278;52.220;5.172;2023-12-07T06:27:12;19.08;;;8.20;;
79790;SDS011;69278;52.220;5.172;2023-12-07T06:29:39;31.03;;;9.23;;
79790;SDS011;69278;52.220;5.172;2023-12-07T06:32:06;19.77;;;8.25;;
79790;SDS011;69278;52.220;5.172;2023-12-07T06:34:32;29.48;;;8.75;;
79790;SDS011;69278;52.220;5.172;2023-12-07T06:36:59;27.42;;;8.75;;
79790;SDS011;69278;52.220;5.172;2023-12-07T06:39:26;35.35;;;8.98;;
79790;SDS011;69278;52.220;5.172;2023-12-07T06:41:52;20.53;;;8.17;;
79790;SDS011;69278;52.220;5.172;2023-12-07T06:44:20;21.55;;;8.65;;
79790;SDS011;69278;52.220;5.172;2023-12-07T06:46:46;24.30;;;8.38;;
79790;SDS011;69278;52.220;5.172;2023-12-07T06:49:13;25.08;;;9.35;;
79790;SDS011;69278;52.220;5.172;2023-12-07T06:51:39;26.70;;;8.43;;
79790;SDS011;69278;52.220;5.172;2023-12-07T06:54:06;26.50;;;9.00;;
79790;SDS011;69278;52.220;5.172;2023-12-07T06:56:32;22.85;;;9.20;;
79790;SDS011;69278;52.220;5.172;2023-12-07T06:58:59;14.75;;;6.22;;
79790;SDS011;69278;52.220;5.172;2023-12-07T07:01:25;29.17;;;9.25;;
79790;SDS011;69278;52.220;5.172;2023-12-07T07:03:52;23.15;;;10.05;;
79790;SDS011;69278;52.220;5.172;2023-12-07T07:06:18;18.73;;;8.13;;
79790;SDS011;69278;52.220;5.172;2023-12-07T07:08:45;21.70;;;9.05;;
79790;SDS011;69278;52.220;5.172;2023-12-07T07:11:14;28.38;;;9.85;;
79790;SDS011;69278;52.220;5.172;2023-12-07T07:13:41;27.00;;;9.23;;
79790;SDS011;69278;52.220;5.172;2023-12-07T07:16:08;30.30;;;9.32;;
79790;SDS011;69278;52.220;5.172;2023-12-07T07:18:37;25.93;;;8.37;;
79790;SDS011;69278;52.220;5.172;2023-12-07T07:21:05;12.57;;;5.20;;
79790;SDS011;69278;52.220;5.172;2023-12-07T07:23:33;15.20;;;6.32;;
79790;SDS011;69278;52.220;5.172;2023-12-07T07:26:01;16.38;;;7.40;;
79790;SDS011;69278;52.220;5.172;2023-12-07T07:28:27;18.75;;;8.13;;
79790;SDS011;69278;52.220;5.172;2023-12-07T07:30:54;20.90;;;8.50;;
79790;SDS011;69278;52.220;5.172;2023-12-07T07:33:20;23.35;;;9.27;;
79790;SDS011;69278;52.220;5.172;2023-12-07T07:35:47;15.88;;;7.65;;
79790;SDS011;69278;52.220;5.172;2023-12-07T07:38:15;17.55;;;7.18;;
79790;SDS011;69278;52.220;5.172;2023-12-07T07:40:42;19.27;;;8.05;;
79790;SDS011;69278;52.220;5.172;2023-12-07T07:43:08;21.75;;;8.13;;
79790;SDS011;69278;52.220;5.172;2023-12-07T07:45:35;14.07;;;7.00;;
79790;SDS011;69278;52.220;5.172;2023-12-07T07:48:02;16.35;;;7.60;;
79790;SDS011;69278;52.220;5.172;2023-12-07T07:50:28;16.23;;;7.88;;
79790;SDS011;69278;52.220;5.172;2023-12-07T07:52:55;17.63;;;7.38;;
79790;SDS011;69278;52.220;5.172;2023-12-07T07:55:21;14.80;;;7.57;;
79790;SDS011;69278;52.220;5.172;2023-12-07T07:57:48;15.07;;;7.20;;
79790;SDS011;69278;52.220;5.172;2023-12-07T08:00:14;24.92;;;9.30;;
79790;SDS011;69278;52.220;5.172;2023-12-07T08:02:41;27.73;;;9.15;;
79790;SDS011;69278;52.220;5.172;2023-12-07T08:05:08;25.88;;;9.13;;
79790;SDS011;69278;52.220;5.172;2023-12-07T08:07:35;22.10;;;8.95;;
79790;SDS011;69278;52.220;5.172;2023-12-07T08:10:02;23.08;;;9.32;;
79790;SDS011;69278;52.220;5.172;2023-12-07T08:12:30;34.05;;;9.65;;
79790;SDS011;69278;52.220;5.172;2023-12-07T08:14:56;26.58;;;9.15;;
79790;SDS011;69278;52.220;5.172;2023-12-07T08:17:23;26.27;;;9.50;;
79790;SDS011;69278;52.220;5.172;2023-12-07T08:19:49;29.33;;;9.30;;
79790;SDS011;69278;52.220;5.172;2023-12-07T08:22:16;30.17;;;9.32;;
79790;SDS011;69278;52.220;5.172;2023-12-07T08:24:42;104.55;;;10.30;;
79790;SDS011;69278;52.220;5.172;2023-12-07T08:27:11;20.10;;;8.85;;
79790;SDS011;69278;52.220;5.172;2023-12-07T08:29:38;19.65;;;9.48;;
79790;SDS011;69278;52.220;5.172;2023-12-07T08:32:04;23.67;;;9.03;;
79790;SDS011;69278;52.220;5.172;2023-12-07T08:34:31;18.33;;;8.63;;
79790;SDS011;69278;52.220;5.172;2023-12-07T08:36:58;30.27;;;8.65;;
79790;SDS011;69278;52.220;5.172;2023-12-07T08:39:24;29.23;;;8.73;;
79790;SDS011;69278;52.220;5.172;2023-12-07T08:41:53;19.98;;;7.85;;
79790;SDS011;69278;52.220;5.172;2023-12-07T08:44:19;34.97;;;8.70;;
79790;SDS011;69278;52.220;5.172;2023-12-07T08:46:46;24.15;;;7.97;;
79790;SDS011;69278;52.220;5.172;2023-12-07T08:49:13;17.60;;;8.20;;
79790;SDS011;69278;52.220;5.172;2023-12-07T08:51:40;19.48;;;7.47;;
79790;SDS011;69278;52.220;5.172;2023-12-07T08:54:26;58.00;;;8.93;;
79790;SDS011;69278;52.220;5.172;2023-12-07T08:56:53;20.63;;;8.00;;
79790;SDS011;69278;52.220;5.172;2023-12-07T08:59:19;24.38;;;8.45;;
79790;SDS011;69278;52.220;5.172;2023-12-07T09:01:47;19.52;;;7.53;;
79790;SDS011;69278;52.220;5.172;2023-12-07T09:04:14;17.38;;;7.45;;
79790;SDS011;69278;52.220;5.172;2023-12-07T09:06:41;15.93;;;7.40;;
79790;SDS011;69278;52.220;5.172;2023-12-07T09:09:08;18.07;;;7.77;;
79790;SDS011;69278;52.220;5.172;2023-12-07T09:11:34;26.02;;;8.05;;
79790;SDS011;69278;52.220;5.172;2023-12-07T09:14:01;27.88;;;7.72;;
79790;SDS011;69278;52.220;5.172;2023-12-07T09:16:27;17.80;;;7.45;;
79790;SDS011;69278;52.220;5.172;2023-12-07T09:18:54;16.20;;;7.97;;
79790;SDS011;69278;52.220;5.172;2023-12-07T09:21:20;26.57;;;7.90;;
79790;SDS011;69278;52.220;5.172;2023-12-07T09:23:47;19.02;;;8.27;;
79790;SDS011;69278;52.220;5.172;2023-12-07T09:26:13;16.98;;;7.38;;
79790;SDS011;69278;52.220;5.172;2023-12-07T09:28:44;19.35;;;7.53;;
79790;SDS011;69278;52.220;5.172;2023-12-07T09:31:10;20.95;;;7.63;;
79790;SDS011;69278;52.220;5.172;2023-12-07T09:33:37;16.57;;;7.00;;
79790;SDS011;69278;52.220;5.172;2023-12-07T09:36:04;10.80;;;5.15;;
79790;SDS011;69278;52.220;5.172;2023-12-07T09:38:37;16.08;;;6.55;;
79790;SDS011;69278;52.220;5.172;2023-12-07T09:41:04;13.35;;;6.00;;
79790;SDS011;69278;52.220;5.172;2023-12-07T09:43:30;13.98;;;6.50;;
79790;SDS011;69278;52.220;5.172;2023-12-07T09:45:57;17.00;;;6.43;;
79790;SDS011;69278;52.220;5.172;2023-12-07T09:48:24;17.60;;;5.97;;
79790;SDS011;69278;52.220;5.172;2023-12-07T09:50:51;19.08;;;5.55;;
79790;SDS011;69278;52.220;5.172;2023-12-07T09:53:18;13.48;;;5.90;;
79790;SDS011;69278;52.220;5.172;2023-12-07T09:55:46;11.00;;;4.85;;
79790;SDS011;69278;52.220;5.172;2023-12-07T09:58:13;10.73;;;5.00;;
79790;SDS011;69278;52.220;5.172;2023-12-07T10:00:42;11.52;;;5.45;;
79790;SDS011;69278;52.220;5.172;2023-12-07T10:03:09;12.73;;;5.97;;
79790;SDS011;69278;52.220;5.172;2023-12-07T10:05:53;13.25;;;5.68;;
79790;SDS011;69278;52.220;5.172;2023-12-07T10:08:30;12.98;;;5.63;;
79790;SDS011;69278;52.220;5.172;2023-12-07T10:13:34;11.18;;;4.95;;
79790;SDS011;69278;52.220;5.172;2023-12-07T10:16:11;10.50;;;4.85;;
79790;SDS011;69278;52.220;5.172;2023-12-07T10:18:43;11.13;;;4.80;;
79790;SDS011;69278;52.220;5.172;2023-12-07T10:21:11;11.82;;;5.32;;
79790;SDS011;69278;52.220;5.172;2023-12-07T10:23:38;12.90;;;5.20;;
79790;SDS011;69278;52.220;5.172;2023-12-07T10:26:07;13.95;;;5.43;;
79790;SDS011;69278;52.220;5.172;2023-12-07T10:28:34;12.80;;;5.25;;
79790;SDS011;69278;52.220;5.172;2023-12-07T10:31:02;12.68;;;5.10;;
79790;SDS011;69278;52.220;5.172;2023-12-07T10:33:29;12.15;;;5.07;;
79790;SDS011;69278;52.220;5.172;2023-12-07T10:35:56;14.73;;;5.07;;
79790;SDS011;69278;52.220;5.172;2023-12-07T10:38:22;8.82;;;4.45;;
79790;SDS011;69278;52.220;5.172;2023-12-07T10:40:51;10.13;;;4.40;;
79790;SDS011;69278;52.220;5.172;2023-12-07T10:43:30;10.50;;;3.65;;
79790;SDS011;69278;52.220;5.172;2023-12-07T10:46:01;8.63;;;3.97;;
79790;SDS011;69278;52.220;5.172;2023-12-07T10:48:30;10.63;;;4.57;;
79790;SDS011;69278;52.220;5.172;2023-12-07T10:50:59;15.10;;;4.35;;
79790;SDS011;69278;52.220;5.172;2023-12-07T10:55:53;9.48;;;3.95;;
79790;SDS011;69278;52.220;5.172;2023-12-07T10:58:22;12.63;;;4.30;;
79790;SDS011;69278;52.220;5.172;2023-12-07T11:00:54;9.53;;;4.13;;
79790;SDS011;69278;52.220;5.172;2023-12-07T11:03:22;9.50;;;3.92;;
79790;SDS011;69278;52.220;5.172;2023-12-07T11:05:50;6.70;;;3.10;;
79790;SDS011;69278;52.220;5.172;2023-12-07T11:14:13;8.10;;;3.60;;
79790;SDS011;69278;52.220;5.172;2023-12-07T11:16:43;9.30;;;4.05;;
79790;SDS011;69278;52.220;5.172;2023-12-07T11:22:05;7.80;;;3.63;;
79790;SDS011;69278;52.220;5.172;2023-12-07T11:24:33;9.73;;;3.70;;
79790;SDS011;69278;52.220;5.172;2023-12-07T11:26:59;9.43;;;4.20;;
79790;SDS011;69278;52.220;5.172;2023-12-07T11:29:30;13.02;;;4.10;;
79790;SDS011;69278;52.220;5.172;2023-12-07T11:32:01;11.43;;;4.50;;
79790;SDS011;69278;52.220;5.172;2023-12-07T11:34:39;10.32;;;4.15;;
79790;SDS011;69278;52.220;5.172;2023-12-07T11:37:06;9.75;;;4.15;;
79790;SDS011;69278;52.220;5.172;2023-12-07T11:39:37;10.07;;;4.10;;
79790;SDS011;69278;52.220;5.172;2023-12-07T11:42:10;9.07;;;4.10;;
79790;SDS011;69278;52.220;5.172;2023-12-07T11:44:38;8.35;;;3.50;;
79790;SDS011;69278;52.220;5.172;2023-12-07T11:47:06;14.65;;;4.43;;
79790;SDS011;69278;52.220;5.172;2023-12-07T11:49:33;13.00;;;4.43;;
79790;SDS011;69278;52.220;5.172;2023-12-07T11:52:11;8.40;;;3.53;;
79790;SDS011;69278;52.220;5.172;2023-12-07T11:54:43;11.05;;;4.50;;
79790;SDS011;69278;52.220;5.172;2023-12-07T11:57:14;12.80;;;4.93;;
79790;SDS011;69278;52.220;5.172;2023-12-07T11:59:43;10.52;;;4.20;;
79790;SDS011;69278;52.220;5.172;2023-12-07T12:02:11;11.75;;;4.90;;
79790;SDS011;69278;52.220;5.172;2023-12-07T12:04:38;13.60;;;5.00;;
79790;SDS011;69278;52.220;5.172;2023-12-07T12:07:07;14.77;;;5.43;;
79790;SDS011;69278;52.220;5.172;2023-12-07T12:09:34;14.52;;;4.85;;
79790;SDS011;69278;52.220;5.172;2023-12-07T12:12:00;13.35;;;5.15;;
79790;SDS011;69278;52.220;5.172;2023-12-07T12:14:27;12.88;;;4.88;;
79790;SDS011;69278;52.220;5.172;2023-12-07T12:16:54;14.60;;;5.00;;
79790;SDS011;69278;52.220;5.172;2023-12-07T12:19:22;13.02;;;4.97;;
79790;SDS011;69278;52.220;5.172;2023-12-07T12:22:00;12.25;;;4.85;;
79790;SDS011;69278;52.220;5.172;2023-12-07T12:24:32;11.07;;;4.70;;
79790;SDS011;69278;52.220;5.172;2023-12-07T12:26:59;13.63;;;5.22;;
79790;SDS011;69278;52.220;5.172;2023-12-07T12:29:26;11.33;;;4.03;;
79790;SDS011;69278;52.220;5.172;2023-12-07T12:32:00;11.48;;;4.82;;
79790;SDS011;69278;52.220;5.172;2023-12-07T12:34:34;14.30;;;5.70;;
79790;SDS011;69278;52.220;5.172;2023-12-07T12:37:02;14.85;;;5.20;;
79790;SDS011;69278;52.220;5.172;2023-12-07T12:39:32;9.00;;;3.47;;
79790;SDS011;69278;52.220;5.172;2023-12-07T12:42:03;9.80;;;4.30;;
79790;SDS011;69278;52.220;5.172;2023-12-07T12:44:31;12.68;;;5.15;;
79790;SDS011;69278;52.220;5.172;2023-12-07T12:47:07;13.57;;;5.80;;
79790;SDS011;69278;52.220;5.172;2023-12-07T12:49:38;12.70;;;4.75;;
79790;SDS011;69278;52.220;5.172;2023-12-07T12:52:09;14.02;;;4.97;;
79790;SDS011;69278;52.220;5.172;2023-12-07T12:54:36;11.83;;;3.97;;
79790;SDS011;69278;52.220;5.172;2023-12-07T12:57:04;8.73;;;3.28;;
79790;SDS011;69278;52.220;5.172;2023-12-07T12:59:33;13.38;;;5.97;;
79790;SDS011;69278;52.220;5.172;2023-12-07T13:01:59;15.05;;;5.65;;
79790;SDS011;69278;52.220;5.172;2023-12-07T13:04:26;15.55;;;5.75;;
79790;SDS011;69278;52.220;5.172;2023-12-07T13:06:52;13.20;;;4.80;;
79790;SDS011;69278;52.220;5.172;2023-12-07T13:09:19;13.32;;;5.20;;
79790;SDS011;69278;52.220;5.172;2023-12-07T13:11:47;12.50;;;5.68;;
79790;SDS011;69278;52.220;5.172;2023-12-07T13:14:15;12.32;;;4.60;;
79790;SDS011;69278;52.220;5.172;2023-12-07T13:16:45;17.20;;;5.35;;
79790;SDS011;69278;52.220;5.172;2023-12-07T13:19:11;16.93;;;4.73;;
79790;SDS011;69278;52.220;5.172;2023-12-07T13:21:38;18.40;;;5.85;;
79790;SDS011;69278;52.220;5.172;2023-12-07T13:24:04;14.63;;;5.80;;
79790;SDS011;69278;52.220;5.172;2023-12-07T13:26:32;14.98;;;5.53;;
79790;SDS011;69278;52.220;5.172;2023-12-07T13:28:58;21.20;;;5.57;;
79790;SDS011;69278;52.220;5.172;2023-12-07T13:31:25;11.33;;;4.90;;
79790;SDS011;69278;52.220;5.172;2023-12-07T13:33:51;16.02;;;6.43;;
79790;SDS011;69278;52.220;5.172;2023-12-07T13:36:23;12.88;;;5.40;;
79790;SDS011;69278;52.220;5.172;2023-12-07T13:38:52;15.75;;;5.60;;
79790;SDS011;69278;52.220;5.172;2023-12-07T13:41:19;15.90;;;5.80;;
79790;SDS011;69278;52.220;5.172;2023-12-07T13:43:46;14.73;;;5.53;;
79790;SDS011;69278;52.220;5.172;2023-12-07T13:46:15;21.38;;;6.45;;
79790;SDS011;69278;52.220;5.172;2023-12-07T13:48:42;15.93;;;5.63;;
79790;SDS011;69278;52.220;5.172;2023-12-07T13:51:09;13.60;;;5.40;;
79790;SDS011;69278;52.220;5.172;2023-12-07T13:53:36;16.92;;;6.05;;
79790;SDS011;69278;52.220;5.172;2023-12-07T13:56:04;14.60;;;5.53;;
79790;SDS011;69278;52.220;5.172;2023-12-07T13:58:31;18.55;;;6.00;;
79790;SDS011;69278;52.220;5.172;2023-12-07T14:00:58;14.95;;;5.55;;
79790;SDS011;69278;52.220;5.172;2023-12-07T14:03:24;17.02;;;6.32;;
79790;SDS011;69278;52.220;5.172;2023-12-07T14:05:54;14.40;;;6.05;;
79790;SDS011;69278;52.220;5.172;2023-12-07T14:08:20;22.30;;;7.07;;
79790;SDS011;69278;52.220;5.172;2023-12-07T14:10:47;15.90;;;6.45;;
79790;SDS011;69278;52.220;5.172;2023-12-07T14:13:14;19.58;;;7.30;;
79790;SDS011;69278;52.220;5.172;2023-12-07T14:15:40;24.27;;;7.88;;
79790;SDS011;69278;52.220;5.172;2023-12-07T14:18:11;33.28;;;8.05;;
79790;SDS011;69278;52.220;5.172;2023-12-07T14:20:40;18.73;;;7.47;;
79790;SDS011;69278;52.220;5.172;2023-12-07T14:23:27;13.98;;;6.05;;
79790;SDS011;69278;52.220;5.172;2023-12-07T14:25:53;16.63;;;7.18;;
79790;SDS011;69278;52.220;5.172;2023-12-07T14:28:27;15.90;;;6.70;;
79790;SDS011;69278;52.220;5.172;2023-12-07T14:30:57;13.57;;;5.88;;
79790;SDS011;69278;52.220;5.172;2023-12-07T14:33:25;24.30;;;8.30;;
79790;SDS011;69278;52.220;5.172;2023-12-07T14:35:52;29.92;;;7.93;;
79790;SDS011;69278;52.220;5.172;2023-12-07T14:38:19;20.40;;;7.95;;
79790;SDS011;69278;52.220;5.172;2023-12-07T14:40:45;21.58;;;8.07;;
79790;SDS011;69278;52.220;5.172;2023-12-07T14:43:12;22.65;;;7.82;;
79790;SDS011;69278;52.220;5.172;2023-12-07T14:45:38;20.90;;;8.00;;
79790;SDS011;69278;52.220;5.172;2023-12-07T14:48:05;24.83;;;8.40;;
79790;SDS011;69278;52.220;5.172;2023-12-07T14:50:32;19.08;;;7.90;;
79790;SDS011;69278;52.220;5.172;2023-12-07T14:52:59;20.25;;;7.88;;